Time;durP1;ratioP1;P1;durP2;ratioP2;P2;SDS_P1;SDS_P2;PMS_P1;PMS_P2;Temp;Humidity;BMP_temperature;BMP_pressure;BME280_temperature;BME280_humidity;BME280_pressure;Samples;Min_cycle;Max_cycle;Signal;HPM_P1;HPM_P2
2021/12/26 00:02:09;;;;;;;26.63;12.07;;;4.10;99.90;;;;;;5053252;28;20020;-80
2021/12/26 00:04:36;;;;;;;25.77;10.93;;;4.10;99.90;;;;;;5053162;28;20052;-80
2021/12/26 00:07:02;;;;;;;32.22;11.07;;;4.10;99.90;;;;;;5051907;28;20408;-80
2021/12/26 00:09:28;;;;;;;26.98;10.90;;;4.20;99.90;;;;;;5053165;28;20085;-80
2021/12/26 00:11:54;;;;;;;27.08;10.27;;;4.30;99.90;;;;;;5051847;28;20021;-80
2021/12/26 00:14:20;;;;;;;41.08;13.55;;;4.30;99.90;;;;;;5053359;28;20104;-80
2021/12/26 00:16:46;;;;;;;17.23;10.18;;;4.30;99.90;;;;;;5053073;28;20047;-80
2021/12/26 00:19:12;;;;;;;34.85;12.10;;;4.30;99.90;;;;;;5053033;28;20055;-80
2021/12/26 00:21:38;;;;;;;22.65;11.20;;;4.30;99.90;;;;;;5053006;28;20025;-79
2021/12/26 00:24:04;;;;;;;23.10;11.48;;;4.20;99.90;;;;;;5052919;28;20025;-80
2021/12/26 00:26:32;;;;;;;28.08;12.85;;;4.20;99.90;;;;;;5052985;28;20068;-80
2021/12/26 00:29:01;;;;;;;25.42;11.98;;;4.20;99.90;;;;;;5051951;28;20021;-79
2021/12/26 00:31:27;;;;;;;23.13;10.82;;;4.20;99.90;;;;;;5051688;28;20052;-80
2021/12/26 00:33:53;;;;;;;25.42;10.73;;;4.20;99.90;;;;;;5051652;28;20043;-80
2021/12/26 00:36:19;;;;;;;30.38;10.63;;;4.20;99.90;;;;;;5052874;28;20092;-79
2021/12/26 00:38:46;;;;;;;24.52;11.98;;;4.20;99.90;;;;;;5052870;28;20033;-80
2021/12/26 00:41:12;;;;;;;27.20;11.23;;;4.20;99.90;;;;;;5051357;28;20504;-79
2021/12/26 00:43:37;;;;;;;30.25;11.30;;;4.20;99.90;;;;;;5052677;28;20021;-79
2021/12/26 00:46:04;;;;;;;24.92;12.50;;;4.20;99.90;;;;;;5052384;28;20032;-80
2021/12/26 00:48:30;;;;;;;19.33;10.75;;;4.10;99.90;;;;;;5052723;28;20021;-79
2021/12/26 00:50:56;;;;;;;28.50;11.70;;;4.10;99.90;;;;;;5051473;28;20480;-80
2021/12/26 00:53:22;;;;;;;34.08;10.90;;;4.20;99.90;;;;;;5051437;28;20029;-80
2021/12/26 00:55:49;;;;;;;33.28;11.23;;;4.20;99.90;;;;;;5052717;28;20051;-79
2021/12/26 00:58:14;;;;;;;32.30;11.75;;;4.20;99.90;;;;;;5052668;28;20059;-79
2021/12/26 01:00:43;;;;;;;27.33;11.95;;;4.20;99.90;;;;;;5054805;28;20040;-80
2021/12/26 01:03:10;;;;;;;27.13;11.27;;;4.30;99.90;;;;;;5055164;28;20116;-79
2021/12/26 01:05:40;;;;;;;40.47;12.00;;;4.20;99.90;;;;;;5056503;28;20519;-79
2021/12/26 01:08:09;;;;;;;34.15;10.30;;;4.30;99.90;;;;;;5056481;28;20017;-79
2021/12/26 01:10:39;;;;;;;38.85;11.98;;;4.20;99.90;;;;;;5055178;28;20080;-79
2021/12/26 01:13:24;;;;;;;37.92;10.68;;;4.00;99.90;;;;;;5055129;28;20017;-79
2021/12/26 01:15:53;;;;;;;44.35;10.93;;;4.10;99.90;;;;;;5055160;28;20535;-80
2021/12/26 01:18:19;;;;;;;43.88;11.35;;;4.00;99.90;;;;;;5055063;28;20025;-79
2021/12/26 01:20:55;;;;;;;41.58;11.45;;;3.90;99.90;;;;;;5054966;28;20025;-79
2021/12/26 01:23:22;;;;;;;67.95;13.32;;;3.90;99.90;;;;;;5054969;28;20112;-79
2021/12/26 01:25:48;;;;;;;39.60;11.00;;;4.00;99.90;;;;;;5054897;28;20025;-79
2021/12/26 01:28:15;;;;;;;39.83;11.90;;;4.00;99.90;;;;;;5056141;28;20025;-79
2021/12/26 01:30:42;;;;;;;46.78;11.77;;;4.00;99.90;;;;;;5054829;28;20087;-80
2021/12/26 01:33:13;;;;;;;21.13;10.40;;;4.10;99.90;;;;;;5054801;28;20477;-80
2021/12/26 01:35:39;;;;;;;49.15;12.30;;;4.10;99.90;;;;;;5054679;28;20021;-80
2021/12/26 01:38:07;;;;;;;81.55;12.82;;;4.10;99.90;;;;;;5054650;28;20407;-80
2021/12/26 01:40:37;;;;;;;71.65;12.85;;;4.10;99.90;;;;;;5055652;28;20041;-79
2021/12/26 01:43:03;;;;;;;77.82;12.55;;;4.00;99.90;;;;;;5055723;28;20017;-80
2021/12/26 01:45:30;;;;;;;55.78;12.50;;;4.10;99.90;;;;;;5055812;28;20029;-80
2021/12/26 01:48:00;;;;;;;145.48;14.55;;;4.00;99.90;;;;;;5055668;28;20028;-79
2021/12/26 01:50:27;;;;;;;55.22;11.98;;;4.00;99.90;;;;;;5055719;28;20385;-80
2021/12/26 01:52:53;;;;;;;67.53;12.52;;;4.00;99.90;;;;;;5055202;28;20021;-79
2021/12/26 01:55:25;;;;;;;67.80;12.15;;;4.10;99.90;;;;;;5055610;28;20025;-79
2021/12/26 01:57:54;;;;;;;59.58;11.68;;;4.10;99.90;;;;;;5054326;28;20033;-80
2021/12/26 02:00:20;;;;;;;36.65;11.30;;;4.20;99.90;;;;;;5055465;28;20029;-79
2021/12/26 02:02:47;;;;;;;66.68;12.70;;;4.20;99.90;;;;;;5055512;28;20066;-79
2021/12/26 02:05:15;;;;;;;65.85;12.43;;;4.30;99.90;;;;;;5055419;28;20497;-80
2021/12/26 02:07:40;;;;;;;63.33;12.18;;;4.30;99.90;;;;;;5054076;28;20017;-79
2021/12/26 02:10:07;;;;;;;40.35;11.02;;;4.30;99.90;;;;;;5054033;28;20362;-80
2021/12/26 02:12:33;;;;;;;78.05;15.05;;;4.30;99.90;;;;;;5055451;28;20032;-80
2021/12/26 02:14:58;;;;;;;42.15;11.68;;;4.20;99.90;;;;;;5053965;28;20025;-79
2021/12/26 02:17:25;;;;;;;64.55;12.90;;;4.10;99.90;;;;;;5053933;28;20021;-80
2021/12/26 02:19:54;;;;;;;19.27;10.15;;;4.10;99.90;;;;;;5053869;28;20025;-80
2021/12/26 02:22:27;;;;;;;71.60;12.57;;;4.00;99.90;;;;;;5053852;28;20029;-79
2021/12/26 02:27:42;;;;;;;38.00;10.77;;;4.00;99.90;;;;;;5055657;28;20119;-80
2021/12/26 02:30:11;;;;;;;65.72;12.38;;;4.20;99.90;;;;;;5055252;28;20372;-80
2021/12/26 02:32:37;;;;;;;63.08;13.38;;;4.20;99.90;;;;;;5054952;28;20021;-80
2021/12/26 02:35:05;;;;;;;104.05;12.80;;;4.30;99.90;;;;;;5053595;28;20028;-79
2021/12/26 02:37:30;;;;;;;76.70;12.52;;;4.30;99.90;;;;;;5053542;28;20476;-79
2021/12/26 02:39:56;;;;;;;34.38;10.82;;;4.30;99.90;;;;;;5054547;28;20104;-79
2021/12/26 02:42:23;;;;;;;32.88;11.40;;;4.40;99.90;;;;;;5053486;28;20119;-80
2021/12/26 02:44:49;;;;;;;99.80;13.43;;;4.50;99.90;;;;;;5054846;28;20518;-79
2021/12/26 02:47:33;;;;;;;75.40;13.15;;;4.40;99.90;;;;;;5054874;28;20025;-80
2021/12/26 02:50:30;;;;;;;93.78;14.90;;;4.30;99.90;;;;;;5053357;28;20025;-79
2021/12/26 02:53:00;;;;;;;82.53;13.40;;;4.10;99.90;;;;;;5052413;28;20036;-79
2021/12/26 02:55:27;;;;;;;20.02;11.43;;;3.90;99.90;;;;;;5054044;28;20024;-80
2021/12/26 02:57:55;;;;;;;52.20;13.02;;;4.00;99.90;;;;;;5053117;28;20024;-80
2021/12/26 03:00:25;;;;;;;83.75;13.27;;;4.10;99.90;;;;;;5054395;28;20342;-79
2021/12/26 03:02:53;;;;;;;106.85;14.63;;;4.10;99.90;;;;;;5053063;28;20029;-79
2021/12/26 03:05:20;;;;;;;85.05;12.63;;;4.00;99.90;;;;;;5053013;28;20112;-79
2021/12/26 03:07:47;;;;;;;88.57;14.90;;;4.00;99.90;;;;;;5052948;28;20025;-79
2021/12/26 03:10:21;;;;;;;89.88;13.25;;;4.00;99.90;;;;;;5052859;28;20028;-79
2021/12/26 03:12:52;;;;;;;87.80;13.20;;;4.00;99.90;;;;;;5052922;28;20025;-79
2021/12/26 03:15:18;;;;;;;122.38;14.05;;;4.00;99.90;;;;;;5052886;28;20032;-79
2021/12/26 03:17:45;;;;;;;89.57;13.50;;;4.10;99.90;;;;;;5052767;28;20473;-79
2021/12/26 03:20:14;;;;;;;111.75;15.10;;;4.10;99.90;;;;;;5052718;28;20427;-80
2021/12/26 03:22:40;;;;;;;45.17;12.65;;;4.00;99.90;;;;;;5053760;28;20423;-79
2021/12/26 03:25:29;;;;;;;68.85;13.38;;;4.00;99.90;;;;;;5053809;28;20024;-79
2021/12/26 03:27:56;;;;;;;51.17;12.00;;;4.10;99.90;;;;;;5053595;28;20040;-80
2021/12/26 03:30:27;;;;;;;85.10;13.57;;;4.20;99.90;;;;;;5053821;28;20390;-80
2021/12/26 03:32:54;;;;;;;62.60;12.85;;;4.10;99.90;;;;;;5052479;28;20108;-80
2021/12/26 03:35:22;;;;;;;40.35;12.02;;;4.20;99.90;;;;;;5053975;28;20425;-79
2021/12/26 03:37:48;;;;;;;70.90;14.32;;;4.20;99.90;;;;;;5052404;28;20431;-80
2021/12/26 03:40:14;;;;;;;48.97;12.07;;;4.10;99.90;;;;;;5052145;28;20374;-80
2021/12/26 03:42:41;;;;;;;67.85;13.05;;;4.10;99.90;;;;;;5053679;28;20032;-80
2021/12/26 03:45:09;;;;;;;69.57;12.60;;;4.10;99.90;;;;;;5052236;28;20029;-80
2021/12/26 03:47:36;;;;;;;66.53;12.98;;;4.10;99.90;;;;;;5052154;28;20017;-80
2021/12/26 03:50:04;;;;;;;34.67;13.02;;;4.10;99.90;;;;;;5052217;28;20025;-80
2021/12/26 03:52:30;;;;;;;68.97;13.40;;;4.10;99.90;;;;;;5052036;28;20119;-79
2021/12/26 03:54:56;;;;;;;66.43;12.35;;;4.00;99.90;;;;;;5052070;28;20057;-80
2021/12/26 03:57:21;;;;;;;86.05;12.95;;;4.00;99.90;;;;;;5052068;28;20032;-80
2021/12/26 03:59:47;;;;;;;90.88;13.13;;;4.00;99.90;;;;;;5053303;28;20028;-80
2021/12/26 04:02:15;;;;;;;82.43;12.88;;;4.10;99.90;;;;;;5053262;28;20033;-80
2021/12/26 04:04:42;;;;;;;39.30;12.25;;;4.10;99.90;;;;;;5053157;28;20028;-80
2021/12/26 04:07:09;;;;;;;28.35;12.00;;;4.10;99.90;;;;;;5053231;28;20017;-80
2021/12/26 04:09:35;;;;;;;94.72;12.57;;;4.10;99.90;;;;;;5052162;28;20061;-80
2021/12/26 04:12:01;;;;;;;46.83;11.50;;;4.10;99.90;;;;;;5053137;28;20059;-80
2021/12/26 04:14:27;;;;;;;92.78;14.02;;;4.10;99.90;;;;;;5053457;28;20033;-79
2021/12/26 04:16:53;;;;;;;85.00;12.93;;;4.10;99.90;;;;;;5053361;28;20025;-80
2021/12/26 04:19:19;;;;;;;125.85;13.77;;;4.00;99.90;;;;;;5051813;28;20032;-79
2021/12/26 04:21:45;;;;;;;35.58;12.02;;;3.90;99.90;;;;;;5051817;28;20025;-80
2021/12/26 04:24:11;;;;;;;79.72;13.82;;;4.00;99.90;;;;;;5051682;28;20021;-80
2021/12/26 04:26:36;;;;;;;98.47;14.23;;;4.00;99.90;;;;;;5052279;28;20032;-80
2021/12/26 04:29:03;;;;;;;73.78;14.20;;;3.80;99.90;;;;;;5052968;28;20561;-80
2021/12/26 04:31:28;;;;;;;34.63;11.43;;;3.80;99.90;;;;;;5052937;28;20021;-80
2021/12/26 04:33:54;;;;;;;28.55;11.93;;;3.80;99.90;;;;;;5051630;28;20047;-80
2021/12/26 04:36:21;;;;;;;63.10;13.27;;;4.00;99.90;;;;;;5055049;28;20036;-79
2021/12/26 04:38:47;;;;;;;51.35;11.80;;;4.00;99.90;;;;;;5057053;28;20381;-79
2021/12/26 04:41:13;;;;;;;107.85;13.70;;;4.20;99.90;;;;;;5055533;28;20045;-80
2021/12/26 04:43:39;;;;;;;46.10;11.88;;;4.30;99.90;;;;;;5055626;28;20078;-80
2021/12/26 04:46:06;;;;;;;67.88;14.00;;;4.20;99.90;;;;;;5055599;28;20108;-79
2021/12/26 04:48:34;;;;;;;32.28;11.02;;;4.20;99.90;;;;;;5055493;28;20021;-79
2021/12/26 04:51:00;;;;;;;18.67;10.18;;;4.30;99.90;;;;;;5055530;28;20064;-80
2021/12/26 04:53:26;;;;;;;46.40;11.77;;;4.40;99.90;;;;;;5056729;28;20480;-80
2021/12/26 04:55:51;;;;;;;59.10;12.10;;;4.50;99.90;;;;;;5057041;28;20112;-80
2021/12/26 04:58:17;;;;;;;70.57;14.07;;;4.40;99.90;;;;;;5056662;28;20104;-80
2021/12/26 05:00:43;;;;;;;36.78;13.10;;;4.30;99.90;;;;;;5056684;28;20029;-80
2021/12/26 05:03:09;;;;;;;45.83;13.60;;;4.30;99.90;;;;;;5055271;28;20025;-80
2021/12/26 05:05:36;;;;;;;26.52;12.38;;;4.30;99.90;;;;;;5055217;28;20063;-79
2021/12/26 05:08:03;;;;;;;27.50;14.90;;;4.30;99.90;;;;;;5055253;28;20614;-80
2021/12/26 05:10:29;;;;;;;21.55;13.10;;;4.30;99.90;;;;;;5055211;28;20029;-80
2021/12/26 05:13:00;;;;;;;22.65;12.77;;;4.20;99.90;;;;;;5056448;28;20446;-80
2021/12/26 05:15:26;;;;;;;30.55;14.75;;;4.20;99.90;;;;;;5055385;28;20029;-80
2021/12/26 05:17:53;;;;;;;27.33;13.95;;;4.20;99.90;;;;;;5055077;28;20485;-79
2021/12/26 05:20:20;;;;;;;50.05;15.75;;;4.20;99.90;;;;;;5055022;28;20029;-79
2021/12/26 05:22:50;;;;;;;44.67;14.75;;;4.20;99.90;;;;;;5054928;28;20021;-80
2021/12/26 05:25:17;;;;;;;57.60;15.60;;;4.10;99.90;;;;;;5054908;28;20029;-79
2021/12/26 05:27:43;;;;;;;45.17;16.45;;;4.10;99.90;;;;;;5054889;28;20032;-79
2021/12/26 05:30:12;;;;;;;33.42;13.40;;;4.20;99.90;;;;;;5054766;28;20021;-80
2021/12/26 05:32:42;;;;;;;44.17;14.50;;;4.20;99.90;;;;;;5054738;28;20469;-79
2021/12/26 05:35:09;;;;;;;45.22;15.48;;;4.10;99.90;;;;;;5056023;28;20512;-80
2021/12/26 05:37:35;;;;;;;49.95;15.20;;;4.10;99.90;;;;;;5054692;28;20025;-79
2021/12/26 05:40:02;;;;;;;69.38;16.90;;;4.20;99.90;;;;;;5055713;28;20492;-80
2021/12/26 05:42:30;;;;;;;41.95;15.07;;;4.10;99.90;;;;;;5055424;28;20055;-79
2021/12/26 05:44:55;;;;;;;59.58;13.98;;;4.10;99.90;;;;;;5055336;28;20088;-79
2021/12/26 05:47:21;;;;;;;50.80;15.38;;;4.20;99.90;;;;;;5055263;28;20025;-79
2021/12/26 05:49:47;;;;;;;51.50;15.48;;;4.10;99.90;;;;;;5054512;28;20059;-80
2021/12/26 05:52:14;;;;;;;22.60;12.80;;;4.00;99.90;;;;;;5054382;28;20024;-79
2021/12/26 05:54:40;;;;;;;18.73;11.20;;;4.20;99.90;;;;;;5054426;28;20112;-80
2021/12/26 05:57:06;;;;;;;28.85;13.70;;;4.30;99.90;;;;;;5054366;28;20366;-80
2021/12/26 05:59:32;;;;;;;44.38;15.35;;;4.40;99.90;;;;;;5054273;28;20033;-80
2021/12/26 06:01:58;;;;;;;22.17;12.40;;;4.20;99.90;;;;;;5054290;28;20051;-80
2021/12/26 06:04:24;;;;;;;26.60;15.10;;;4.10;99.90;;;;;;5054126;28;20476;-79
2021/12/26 06:06:51;;;;;;;23.80;13.38;;;4.10;99.90;;;;;;5054185;28;20071;-80
2021/12/26 06:09:17;;;;;;;19.80;12.32;;;4.20;99.90;;;;;;5054127;28;20025;-79
2021/12/26 06:11:43;;;;;;;19.05;11.60;;;4.30;99.90;;;;;;5054088;28;20384;-80
2021/12/26 06:14:08;;;;;;;26.23;11.85;;;4.30;99.90;;;;;;5054098;28;20029;-80
2021/12/26 06:16:34;;;;;;;21.95;12.18;;;4.30;99.90;;;;;;5055488;28;20491;-80
2021/12/26 06:19:00;;;;;;;17.40;11.00;;;4.40;99.90;;;;;;5055188;28;20041;-79
2021/12/26 06:21:26;;;;;;;23.60;11.93;;;4.40;99.90;;;;;;5055163;28;20079;-80
2021/12/26 06:23:52;;;;;;;23.30;12.02;;;4.40;99.90;;;;;;5053754;28;20061;-79
2021/12/26 06:26:22;;;;;;;21.70;12.23;;;4.50;99.90;;;;;;5055046;28;20021;-79
2021/12/26 06:28:48;;;;;;;22.92;12.73;;;4.50;99.90;;;;;;5053766;28;20104;-79
2021/12/26 06:31:14;;;;;;;16.33;10.48;;;4.40;99.90;;;;;;5053720;28;20056;-79
2021/12/26 06:33:41;;;;;;;24.25;12.60;;;4.40;99.90;;;;;;5054936;28;20022;-79
2021/12/26 06:36:07;;;;;;;23.40;13.45;;;4.40;99.90;;;;;;5054859;28;20032;-79
2021/12/26 06:38:35;;;;;;;61.45;26.85;;;4.50;99.90;;;;;;5053420;28;20028;-79
2021/12/26 06:41:01;;;;;;;33.33;18.70;;;4.40;99.90;;;;;;5054662;28;20594;-79
2021/12/26 06:43:27;;;;;;;22.65;12.55;;;4.30;99.90;;;;;;5054689;28;20113;-79
2021/12/26 06:45:53;;;;;;;24.70;13.38;;;4.30;99.90;;;;;;5053719;28;20021;-80
2021/12/26 06:48:19;;;;;;;17.35;11.00;;;4.30;99.90;;;;;;5054595;28;20101;-79
2021/12/26 06:50:46;;;;;;;23.90;12.35;;;4.40;99.90;;;;;;5053297;28;20021;-79
2021/12/26 06:53:13;;;;;;;24.35;13.57;;;4.30;99.90;;;;;;5054537;28;20385;-79
2021/12/26 06:55:39;;;;;;;18.52;11.23;;;4.30;99.90;;;;;;5053215;28;20024;-79
2021/12/26 06:58:05;;;;;;;18.45;11.55;;;4.40;99.90;;;;;;5052342;28;20481;-79
2021/12/26 07:00:31;;;;;;;18.95;11.43;;;4.60;99.90;;;;;;5053156;28;20017;-79
2021/12/26 07:02:57;;;;;;;18.48;11.40;;;4.60;99.90;;;;;;5053120;28;20033;-79
2021/12/26 07:05:23;;;;;;;22.17;11.80;;;4.60;99.90;;;;;;5053015;28;20101;-79
2021/12/26 07:07:48;;;;;;;17.35;10.57;;;4.60;99.90;;;;;;5054539;28;20028;-80
2021/12/26 07:10:14;;;;;;;21.20;12.77;;;4.60;99.90;;;;;;5053249;28;20052;-79
2021/12/26 07:12:41;;;;;;;22.27;12.48;;;4.50;99.90;;;;;;5054163;28;20467;-79
2021/12/26 07:15:07;;;;;;;15.50;10.10;;;4.50;99.90;;;;;;5052833;28;20116;-79
2021/12/26 07:17:33;;;;;;;19.10;11.07;;;4.60;99.90;;;;;;5052820;28;20029;-80
2021/12/26 07:19:59;;;;;;;19.63;11.95;;;4.50;99.90;;;;;;5052809;28;20032;-80
2021/12/26 07:22:25;;;;;;;18.65;11.55;;;4.50;99.90;;;;;;5052720;28;20028;-80
2021/12/26 07:24:50;;;;;;;18.83;11.45;;;4.70;99.90;;;;;;5054170;28;20074;-79
2021/12/26 07:27:16;;;;;;;17.23;10.85;;;4.70;99.90;;;;;;5052605;28;20028;-79
2021/12/26 07:29:43;;;;;;;18.30;11.13;;;4.70;99.90;;;;;;5053806;28;20103;-79
2021/12/26 07:32:10;;;;;;;17.25;10.60;;;4.70;99.90;;;;;;5052498;28;20029;-79
2021/12/26 07:34:37;;;;;;;21.17;13.52;;;4.60;99.90;;;;;;5053743;28;20029;-79
2021/12/26 07:37:04;;;;;;;20.30;12.20;;;4.60;99.90;;;;;;5052458;28;20052;-79
2021/12/26 07:39:29;;;;;;;18.30;11.23;;;4.50;99.90;;;;;;5052385;28;20032;-80
2021/12/26 07:41:56;;;;;;;17.83;11.10;;;4.50;99.90;;;;;;5052209;28;20053;-79
2021/12/26 07:44:21;;;;;;;19.27;11.23;;;4.50;99.90;;;;;;5053852;28;20070;-79
2021/12/26 07:46:49;;;;;;;20.30;12.25;;;4.50;99.90;;;;;;5053751;28;20504;-79
2021/12/26 07:49:16;;;;;;;19.52;12.07;;;4.60;99.90;;;;;;5053395;28;20385;-79
2021/12/26 07:51:44;;;;;;;17.80;10.57;;;4.60;99.90;;;;;;5053459;28;20485;-79
2021/12/26 07:54:12;;;;;;;18.05;11.85;;;4.60;99.90;;;;;;5053393;28;20045;-79
2021/12/26 07:56:38;;;;;;;20.95;12.48;;;4.60;99.90;;;;;;5053411;28;20049;-79
2021/12/26 07:59:04;;;;;;;18.92;12.40;;;4.60;99.90;;;;;;5052085;28;20071;-79
2021/12/26 08:01:29;;;;;;;21.40;13.55;;;4.50;99.90;;;;;;5052089;28;20060;-79
2021/12/26 08:03:57;;;;;;;18.67;11.90;;;4.50;99.90;;;;;;5051911;28;20041;-80
2021/12/26 08:06:22;;;;;;;19.98;12.52;;;4.50;99.90;;;;;;5052016;28;20025;-79
2021/12/26 08:08:49;;;;;;;18.42;11.63;;;4.50;99.90;;;;;;5051881;28;20021;-79
2021/12/26 08:11:16;;;;;;;20.23;11.63;;;4.60;99.90;;;;;;5051887;28;20456;-79
2021/12/26 08:13:42;;;;;;;19.10;11.40;;;4.60;99.90;;;;;;5051869;28;20025;-79
2021/12/26 08:16:08;;;;;;;19.25;12.30;;;4.60;99.90;;;;;;5053130;28;20393;-79
2021/12/26 08:18:35;;;;;;;19.05;12.50;;;4.60;99.90;;;;;;5051793;28;20021;-79
2021/12/26 08:21:01;;;;;;;20.13;12.48;;;4.60;99.90;;;;;;5051731;28;20158;-79
2021/12/26 08:23:27;;;;;;;20.63;12.63;;;4.60;99.90;;;;;;5052916;28;20112;-80
2021/12/26 08:25:54;;;;;;;20.60;12.35;;;4.60;99.90;;;;;;5051679;28;20029;-80
2021/12/26 08:28:20;;;;;;;18.55;11.90;;;4.70;99.90;;;;;;5051684;28;20044;-79
2021/12/26 08:30:46;;;;;;;19.33;12.07;;;4.70;99.90;;;;;;5053000;28;20507;-79
2021/12/26 08:33:12;;;;;;;17.90;11.35;;;4.70;99.90;;;;;;5051653;28;20443;-80
2021/12/26 08:35:41;;;;;;;24.80;15.38;;;4.80;99.90;;;;;;5052926;28;20488;-79
2021/12/26 08:38:08;;;;;;;22.33;12.52;;;4.80;99.90;;;;;;5051575;28;20021;-79
2021/12/26 08:40:34;;;;;;;15.82;10.23;;;4.90;99.90;;;;;;5051364;28;20049;-79
2021/12/26 08:43:00;;;;;;;17.73;10.77;;;5.00;99.90;;;;;;5052790;28;20087;-79
2021/12/26 08:45:26;;;;;;;15.25;10.05;;;5.10;99.90;;;;;;5051458;28;20025;-79
2021/12/26 08:47:55;;;;;;;18.98;10.75;;;5.20;99.90;;;;;;5051465;28;20033;-79
2021/12/26 08:50:23;;;;;;;15.40;9.98;;;5.30;99.90;;;;;;5051496;28;20609;-79
2021/12/26 08:52:49;;;;;;;12.63;8.73;;;5.30;99.90;;;;;;5052635;28;20112;-79
2021/12/26 08:55:15;;;;;;;18.98;10.93;;;5.40;99.90;;;;;;5051369;28;20044;-79
2021/12/26 08:57:41;;;;;;;17.00;9.48;;;5.30;99.90;;;;;;5052925;28;20381;-79
2021/12/26 09:00:10;;;;;;;13.88;8.30;;;5.30;99.90;;;;;;5052926;28;20025;-79
2021/12/26 09:02:36;;;;;;;13.48;7.43;;;5.20;99.90;;;;;;5051371;28;20054;-79
2021/12/26 09:05:03;;;;;;;14.82;8.30;;;5.30;99.90;;;;;;5051215;28;20029;-79
2021/12/26 09:07:30;;;;;;;13.70;8.38;;;5.30;99.90;;;;;;5052902;28;20022;-79
2021/12/26 09:09:56;;;;;;;13.77;8.85;;;5.40;99.90;;;;;;5051431;28;20079;-79
2021/12/26 09:12:22;;;;;;;14.90;9.05;;;5.40;99.90;;;;;;5051311;28;20079;-79
2021/12/26 09:14:48;;;;;;;14.55;8.95;;;5.30;99.90;;;;;;5051314;28;20029;-79
2021/12/26 09:17:14;;;;;;;15.43;9.18;;;5.30;99.90;;;;;;5051205;28;20029;-79
2021/12/26 09:19:40;;;;;;;16.10;9.15;;;5.30;99.90;;;;;;5052492;28;20028;-79
2021/12/26 09:22:09;;;;;;;15.57;9.63;;;5.30;99.90;;;;;;5055170;28;20029;-79
2021/12/26 09:24:35;;;;;;;16.33;9.52;;;5.30;99.90;;;;;;5054848;28;20083;-79
2021/12/26 09:27:01;;;;;;;11.07;7.50;;;5.40;99.90;;;;;;5056182;28;20100;-79
2021/12/26 09:29:27;;;;;;;12.82;8.15;;;5.50;99.90;;;;;;5054888;28;20033;-79
2021/12/26 09:31:53;;;;;;;10.70;6.82;;;5.50;99.90;;;;;;5054880;28;20044;-79
2021/12/26 09:34:20;;;;;;;13.02;7.30;;;5.50;99.90;;;;;;5054719;28;20441;-79
2021/12/26 09:36:46;;;;;;;13.52;7.60;;;5.50;99.90;;;;;;5054627;28;20485;-79
2021/12/26 09:39:12;;;;;;;15.38;8.88;;;5.50;99.90;;;;;;5056476;28;20440;-79
2021/12/26 09:41:38;;;;;;;12.60;6.97;;;5.60;99.90;;;;;;5054537;28;20508;-79
2021/12/26 09:44:06;;;;;;;12.80;7.55;;;5.60;99.90;;;;;;5054699;28;20048;-79
2021/12/26 09:46:33;;;;;;;15.82;12.27;;;5.60;99.90;;;;;;5055662;28;20432;-79
2021/12/26 09:48:59;;;;;;;9.95;7.13;;;5.70;99.90;;;;;;5054439;28;20383;-79
2021/12/26 09:51:26;;;;;;;11.18;7.47;;;5.90;99.90;;;;;;5055759;28;20021;-79
2021/12/26 09:53:52;;;;;;;10.75;7.07;;;6.00;99.90;;;;;;5054473;28;20056;-79
2021/12/26 09:56:18;;;;;;;10.75;6.70;;;6.00;99.90;;;;;;5055654;28;20515;-79
2021/12/26 09:58:51;;;;;;;9.20;6.47;;;6.20;99.90;;;;;;5054321;28;20116;-79
2021/12/26 10:01:27;;;;;;;10.60;6.70;;;6.20;99.90;;;;;;5054525;28;20116;-79
2021/12/26 10:03:53;;;;;;;10.45;7.15;;;6.20;99.90;;;;;;5055456;28;20369;-79
2021/12/26 10:06:19;;;;;;;12.20;7.40;;;6.30;99.90;;;;;;5055736;28;20109;-79
2021/12/26 10:08:58;;;;;;;13.90;7.60;;;6.40;99.90;;;;;;5054122;28;20057;-79
2021/12/26 10:11:37;;;;;;;10.25;7.20;;;6.40;99.90;;;;;;5055370;28;20048;-79
2021/12/26 10:14:18;;;;;;;15.18;7.43;;;6.40;99.90;;;;;;5055398;28;20029;-79
2021/12/26 10:16:54;;;;;;;11.60;6.53;;;6.40;99.90;;;;;;5055300;28;20432;-79
2021/12/26 10:19:20;;;;;;;11.43;6.93;;;6.50;99.90;;;;;;5055383;28;20091;-79
2021/12/26 10:21:47;;;;;;;12.02;7.10;;;6.50;99.90;;;;;;5055159;28;20075;-79
2021/12/26 10:24:13;;;;;;;12.80;6.38;;;6.50;99.90;;;;;;5053758;28;20393;-79
2021/12/26 10:26:45;;;;;;;9.38;6.80;;;6.40;99.90;;;;;;5055090;28;20021;-79
2021/12/26 10:29:12;;;;;;;10.15;6.38;;;6.50;99.90;;;;;;5055139;28;20052;-79
2021/12/26 10:31:45;;;;;;;10.23;6.88;;;6.50;99.90;;;;;;5054676;28;20028;-79
2021/12/26 10:34:21;;;;;;;10.48;6.55;;;6.50;99.90;;;;;;5052884;28;20025;-79
2021/12/26 10:36:49;;;;;;;9.52;6.50;;;6.50;99.90;;;;;;5053683;28;20029;-79
2021/12/26 10:39:20;;;;;;;10.60;6.55;;;6.60;99.90;;;;;;5054822;28;20021;-79
2021/12/26 10:41:49;;;;;;;9.10;6.10;;;6.50;99.90;;;;;;5053357;28;20045;-79
2021/12/26 10:44:19;;;;;;;9.38;6.65;;;6.60;99.90;;;;;;5053421;28;20415;-78
2021/12/26 10:46:52;;;;;;;11.43;7.25;;;6.70;99.90;;;;;;5053433;28;20024;-79
2021/12/26 10:49:31;;;;;;;11.95;7.10;;;6.80;99.90;;;;;;5053344;28;20021;-78
2021/12/26 10:51:59;;;;;;;11.10;7.50;;;7.00;99.90;;;;;;5054700;28;20017;-79
2021/12/26 10:54:31;;;;;;;9.95;7.38;;;7.20;99.90;;;;;;5053232;28;20109;-78
2021/12/26 10:57:30;;;;;;;9.20;6.90;;;7.40;99.90;;;;;;5053288;28;20112;-79
2021/12/26 11:00:13;;;;;;;9.75;6.53;;;7.50;99.90;;;;;;5053488;28;20444;-78
2021/12/26 11:02:42;;;;;;;14.95;9.38;;;7.50;99.90;;;;;;5053170;28;20017;-79
2021/12/26 11:05:23;;;;;;;7.82;5.72;;;7.60;99.90;;;;;;5053004;28;20484;-78
2021/12/26 11:07:57;;;;;;;9.73;6.97;;;7.60;99.90;;;;;;5053133;28;20388;-78
2021/12/26 11:10:28;;;;;;;9.35;6.50;;;7.70;99.90;;;;;;5054238;28;20024;-79
2021/12/26 11:12:59;;;;;;;8.50;6.10;;;7.90;99.90;;;;;;5052831;28;20028;-79
2021/12/26 11:15:28;;;;;;;8.05;6.20;;;8.00;99.90;;;;;;5054221;28;20032;-78
2021/12/26 11:17:58;;;;;;;7.03;5.05;;;8.00;99.90;;;;;;5052840;28;20024;-79
2021/12/26 11:20:27;;;;;;;8.38;5.60;;;8.10;99.90;;;;;;5054109;28;20545;-78
2021/12/26 11:22:54;;;;;;;6.38;5.10;;;8.20;99.90;;;;;;5052761;28;20032;-78
2021/12/26 11:25:21;;;;;;;7.10;5.25;;;8.10;99.90;;;;;;5052821;28;20401;-79
2021/12/26 11:27:47;;;;;;;7.55;4.82;;;8.10;99.90;;;;;;5053942;28;20134;-79
2021/12/26 11:30:12;;;;;;;6.70;4.78;;;8.10;99.90;;;;;;5036159;28;20033;-78
2021/12/26 11:32:40;;;;;;;7.70;5.53;;;8.10;99.90;;;;;;5053825;28;20558;-78
2021/12/26 11:35:08;;;;;;;6.43;5.07;;;8.20;99.90;;;;;;5052528;28;20029;-78
2021/12/26 11:37:35;;;;;;;7.50;5.38;;;8.10;99.90;;;;;;5052421;28;20071;-78
2021/12/26 11:40:02;;;;;;;5.90;4.40;;;8.20;99.90;;;;;;5053519;28;20464;-79
2021/12/26 11:42:37;;;;;;;5.22;3.95;;;8.40;99.90;;;;;;5052422;28;20068;-78
2021/12/26 11:45:29;;;;;;;6.55;4.78;;;8.60;99.90;;;;;;5051903;28;20431;-79
2021/12/26 11:48:21;;;;;;;7.82;4.50;;;8.60;99.90;;;;;;5052264;28;20540;-78
2021/12/26 11:51:08;;;;;;;6.85;4.80;;;8.60;99.90;;;;;;5053665;28;20117;-79
2021/12/26 11:53:34;;;;;;;7.40;5.20;;;8.40;99.90;;;;;;5052263;28;20025;-78
2021/12/26 11:56:22;;;;;;;7.60;5.47;;;8.30;99.90;;;;;;5052244;28;20036;-79
2021/12/26 11:58:53;;;;;;;6.65;4.60;;;8.30;99.90;;;;;;5052204;28;20100;-79
2021/12/26 12:01:22;;;;;;;5.63;4.45;;;8.30;99.90;;;;;;5052163;28;20021;-78
2021/12/26 12:03:49;;;;;;;6.72;4.40;;;8.30;99.90;;;;;;5052009;28;20025;-79
2021/12/26 12:06:26;;;;;;;8.23;5.97;;;8.30;99.90;;;;;;5051986;28;20027;-79
2021/12/26 12:08:55;;;;;;;6.75;5.30;;;8.20;99.90;;;;;;5051964;28;20029;-79
2021/12/26 12:11:21;;;;;;;9.30;5.10;;;8.10;99.90;;;;;;5051924;28;20090;-79
2021/12/26 12:13:53;;;;;;;7.63;5.70;;;8.10;99.90;;;;;;5051953;28;20484;-79
2021/12/26 12:16:24;;;;;;;9.00;6.00;;;8.00;99.90;;;;;;5053145;28;20025;-79
2021/12/26 12:18:50;;;;;;;8.15;6.07;;;7.80;99.90;;;;;;5051865;28;20362;-79
2021/12/26 12:21:54;;;;;;;7.03;5.60;;;7.70;99.90;;;;;;5053034;28;20021;-79
2021/12/26 12:24:27;;;;;;;11.13;7.13;;;7.70;99.90;;;;;;5034389;28;20035;-81
2021/12/26 12:26:58;;;;;;;8.38;6.82;;;7.50;99.90;;;;;;5048513;28;20032;-79
2021/12/26 12:29:24;;;;;;;8.18;6.53;;;7.40;99.90;;;;;;5051611;28;20057;-78
2021/12/26 12:32:09;;;;;;;7.43;5.32;;;7.30;99.90;;;;;;5051779;28;20063;-77
2021/12/26 12:34:49;;;;;;;8.93;6.65;;;7.30;99.90;;;;;;5052857;28;20025;-77
2021/12/26 12:37:41;;;;;;;6.03;4.80;;;7.20;99.90;;;;;;5051639;28;20036;-77
2021/12/26 12:40:07;;;;;;;9.27;7.15;;;7.20;99.90;;;;;;5051452;28;20075;-77
2021/12/26 12:42:34;;;;;;;8.02;5.85;;;7.20;99.90;;;;;;5051597;28;20025;-77
2021/12/26 12:44:59;;;;;;;17.80;12.55;;;7.10;99.90;;;;;;5052763;28;20475;-78
2021/12/26 12:47:26;;;;;;;10.45;7.93;;;7.20;99.90;;;;;;5051525;28;20087;-78
2021/12/26 12:50:02;;;;;;;10.88;8.23;;;7.10;99.90;;;;;;5051585;28;20076;-78